createdAt,value
2022-10-17T00:00:14.107Z,11.60
2022-10-17T00:00:36.999Z,11.60
2022-10-17T00:00:59.691Z,11.50
2022-10-17T00:01:22.467Z,11.60
2022-10-17T00:01:45.370Z,11.50
2022-10-17T00:02:08.501Z,11.50
2022-10-17T00:02:34.140Z,11.50
2022-10-17T00:02:56.981Z,11.50
2022-10-17T00:03:19.801Z,11.50
2022-10-17T00:03:42.550Z,11.50
2022-10-17T00:04:05.340Z,11.50
2022-10-17T00:04:29.125Z,11.50
2022-10-17T00:04:51.902Z,11.50
2022-10-17T00:05:14.651Z,11.50
2022-10-17T00:05:40.281Z,11.50
2022-10-17T00:06:06.197Z,11.50
2022-10-17T00:06:29.241Z,11.50
2022-10-17T00:06:51.961Z,11.50
2022-10-17T00:07:14.735Z,11.50
2022-10-17T00:07:37.480Z,11.50
2022-10-17T00:08:00.241Z,11.40
2022-10-17T00:08:23.190Z,11.40
2022-10-17T00:08:45.916Z,11.40
2022-10-17T00:09:09.771Z,11.40
2022-10-17T00:09:32.439Z,11.40
2022-10-17T00:09:55.341Z,11.40
2022-10-17T00:10:18.157Z,11.40
2022-10-17T00:10:41.060Z,11.40
2022-10-17T00:11:05.695Z,11.40
2022-10-17T00:11:28.476Z,11.40
2022-10-17T00:11:51.202Z,11.40
2022-10-17T00:12:15.417Z,11.40
2022-10-17T00:12:38.197Z,11.40
2022-10-17T00:13:00.978Z,11.40
2022-10-17T00:13:23.736Z,11.40
2022-10-17T00:13:46.888Z,11.40
2022-10-17T00:14:09.692Z,11.40
2022-10-17T00:14:32.448Z,11.40
2022-10-17T00:14:55.202Z,11.40
2022-10-17T00:15:19.036Z,11.40
2022-10-17T00:15:44.488Z,11.40
2022-10-17T00:16:08.293Z,11.40
2022-10-17T00:16:32.644Z,11.40
2022-10-17T00:16:55.355Z,11.40
2022-10-17T00:17:18.020Z,11.40
2022-10-17T00:17:42.235Z,11.50
2022-10-17T00:18:04.935Z,11.40
2022-10-17T00:18:27.732Z,11.40
2022-10-17T00:18:50.419Z,11.40
2022-10-17T00:19:13.099Z,11.40
2022-10-17T00:19:35.798Z,11.50
2022-10-17T00:19:59.543Z,11.50
2022-10-17T00:20:22.246Z,11.50
2022-10-17T00:20:44.982Z,11.50
2022-10-17T00:21:14.651Z,11.50
2022-10-17T00:21:37.531Z,11.50
2022-10-17T00:22:00.201Z,11.50
2022-10-17T00:22:22.943Z,11.50
2022-10-17T00:22:45.934Z,11.40
2022-10-17T00:23:08.809Z,11.40
2022-10-17T00:23:31.533Z,11.40
2022-10-17T00:23:54.564Z,11.40
2022-10-17T00:24:17.367Z,11.50
2022-10-17T00:24:40.163Z,11.40
2022-10-17T00:25:02.903Z,11.40
2022-10-17T00:25:25.615Z,11.40
2022-10-17T00:25:48.334Z,11.40
2022-10-17T00:26:11.098Z,11.40
2022-10-17T00:26:33.973Z,11.40
2022-10-17T00:26:56.776Z,11.40
2022-10-17T00:27:20.829Z,11.40
2022-10-17T00:27:43.520Z,11.30
2022-10-17T00:28:06.377Z,11.30
2022-10-17T00:28:31.587Z,11.40
2022-10-17T00:28:54.604Z,11.30
2022-10-17T00:29:17.343Z,11.30
2022-10-17T00:29:40.082Z,11.30
2022-10-17T00:30:02.903Z,11.20
2022-10-17T00:30:25.567Z,11.20
2022-10-17T00:30:55.295Z,11.20
2022-10-17T00:31:18.478Z,11.20
2022-10-17T00:31:42.320Z,11.20
2022-10-17T00:32:05.595Z,11.20
2022-10-17T00:32:28.653Z,11.10
2022-10-17T00:32:51.724Z,11.10
2022-10-17T00:33:14.391Z,11.10
2022-10-17T00:33:37.333Z,11.10
2022-10-17T00:34:00.109Z,11.10
2022-10-17T00:34:22.869Z,11.10
2022-10-17T00:34:45.588Z,11.00
2022-10-17T00:35:11.318Z,11.00
2022-10-17T00:35:34.228Z,11.10
2022-10-17T00:36:06.410Z,11.10
2022-10-17T00:36:29.291Z,11.10
2022-10-17T00:36:52.013Z,11.10
2022-10-17T00:37:14.750Z,11.10
2022-10-17T00:37:37.451Z,11.00
2022-10-17T00:38:00.183Z,11.00
2022-10-17T00:38:22.885Z,11.00
2022-10-17T00:38:47.076Z,11.00
2022-10-17T00:39:09.923Z,11.00
2022-10-17T00:39:32.971Z,11.00
2022-10-17T00:39:55.727Z,11.00
2022-10-17T00:40:18.475Z,10.90
2022-10-17T00:40:41.215Z,10.90
2022-10-17T00:41:04.302Z,10.90
2022-10-17T00:41:28.625Z,10.90
2022-10-17T00:41:51.356Z,10.90
2022-10-17T00:42:14.062Z,10.90
2022-10-17T00:42:38.220Z,10.90
2022-10-17T00:43:00.949Z,10.90
2022-10-17T00:43:23.660Z,10.90
2022-10-17T00:43:54.236Z,10.90
2022-10-17T00:45:04.387Z,10.90
2022-10-17T00:45:27.770Z,10.90
2022-10-17T00:45:50.429Z,11.00
2022-10-17T00:46:13.225Z,11.00
2022-10-17T00:46:37.735Z,11.00
2022-10-17T00:47:02.060Z,11.00
2022-10-17T00:47:24.940Z,11.00
2022-10-17T00:47:49.235Z,11.00
2022-10-17T00:48:12.010Z,11.00
2022-10-17T00:48:34.793Z,11.00
2022-10-17T00:48:58.560Z,11.00
2022-10-17T00:49:21.345Z,11.00
2022-10-17T00:49:44.179Z,11.00
2022-10-17T00:50:07.276Z,11.00
2022-10-17T00:50:30.141Z,11.00
2022-10-17T00:50:52.869Z,11.00
2022-10-17T00:51:15.719Z,11.00
2022-10-17T00:51:41.203Z,10.90
2022-10-17T00:52:04.973Z,10.90
2022-10-17T00:52:28.745Z,10.90
2022-10-17T00:52:51.788Z,10.90
2022-10-17T00:53:14.593Z,10.90
2022-10-17T00:53:37.699Z,10.80
2022-10-17T00:54:00.506Z,10.80
2022-10-17T00:54:24.648Z,10.80
2022-10-17T00:54:49.602Z,10.80
2022-10-17T00:55:15.352Z,10.80
2022-10-17T00:55:39.584Z,10.70
2022-10-17T00:56:02.293Z,10.70
2022-10-17T00:56:27.644Z,10.70
2022-10-17T00:56:50.319Z,10.70
2022-10-17T00:57:14.076Z,10.70
2022-10-17T00:57:38.363Z,10.70
2022-10-17T00:58:02.242Z,10.70
2022-10-17T00:58:25.057Z,10.70
2022-10-17T00:58:47.719Z,10.70
2022-10-17T00:59:11.074Z,10.70
2022-10-17T00:59:33.886Z,10.70
2022-10-17T00:59:56.633Z,10.70
2022-10-17T01:00:19.435Z,10.70
2022-10-17T01:00:42.723Z,10.70
2022-10-17T01:01:05.788Z,10.60
2022-10-17T01:01:28.534Z,10.60
2022-10-17T01:01:54.323Z,10.60
2022-10-17T01:02:18.856Z,10.60
2022-10-17T01:02:41.670Z,10.60
2022-10-17T01:03:04.493Z,10.60
2022-10-17T01:03:27.434Z,10.60
2022-10-17T01:03:50.041Z,10.60
2022-10-17T01:04:12.856Z,10.60
2022-10-17T01:04:35.952Z,10.70
2022-10-17T01:04:59.689Z,10.60
2022-10-17T01:05:22.468Z,10.60
2022-10-17T01:05:45.174Z,10.60
2022-10-17T01:06:07.848Z,10.60
2022-10-17T01:06:30.562Z,10.70
2022-10-17T01:06:53.309Z,10.60
2022-10-17T01:07:16.131Z,10.60
2022-10-17T01:07:39.346Z,10.70
2022-10-17T01:08:02.072Z,10.70
2022-10-17T01:08:24.773Z,10.60
2022-10-17T01:08:47.518Z,10.60
2022-10-17T01:09:10.253Z,10.60
2022-10-17T01:09:32.979Z,10.60
2022-10-17T01:09:55.675Z,10.60
2022-10-17T01:10:18.575Z,10.60
2022-10-17T01:10:48.304Z,10.60
2022-10-17T01:11:19.975Z,10.60
2022-10-17T01:11:48.786Z,10.60
2022-10-17T01:12:15.579Z,10.60
2022-10-17T01:12:46.551Z,10.60
2022-10-17T01:13:12.467Z,10.60
2022-10-17T01:13:39.485Z,10.50
2022-10-17T01:14:04.571Z,10.60
2022-10-17T01:14:30.100Z,10.50
2022-10-17T01:15:03.261Z,10.50
2022-10-17T01:15:33.843Z,10.50
2022-10-17T01:16:01.922Z,10.50
2022-10-17T01:16:30.231Z,10.50
2022-10-17T01:16:55.956Z,10.50
2022-10-17T01:17:22.645Z,10.50
2022-10-17T01:17:52.963Z,10.50
2022-10-17T01:18:22.092Z,10.50
2022-10-17T01:18:54.100Z,10.50
2022-10-17T01:19:35.075Z,10.40
2022-10-17T01:20:26.723Z,10.40
2022-10-17T01:21:10.409Z,10.40
2022-10-17T01:21:44.964Z,10.30
2022-10-17T01:22:09.324Z,10.30
2022-10-17T01:22:33.400Z,10.30
2022-10-17T01:22:59.388Z,10.30
2022-10-17T01:23:31.249Z,10.30
2022-10-17T01:24:18.563Z,10.30
2022-10-17T01:25:25.276Z,10.30
2022-10-17T01:25:52.661Z,10.20
2022-10-17T01:26:19.538Z,10.20
2022-10-17T01:27:09.460Z,10.20
2022-10-17T01:27:55.239Z,10.20
2022-10-17T01:28:26.342Z,10.30
2022-10-17T01:29:12.424Z,10.30
2022-10-17T01:29:47.668Z,10.30
2022-10-17T01:30:45.218Z,10.30
2022-10-17T01:31:09.993Z,10.30
2022-10-17T01:31:34.159Z,10.30
2022-10-17T01:31:59.685Z,10.20
2022-10-17T01:32:24.341Z,10.20
2022-10-17T01:32:48.326Z,10.20
2022-10-17T01:33:12.758Z,10.20
2022-10-17T01:33:47.133Z,10.20
2022-10-17T01:34:13.516Z,10.20
2022-10-17T01:34:39.056Z,10.20
2022-10-17T01:35:04.357Z,10.20
2022-10-17T01:35:28.723Z,10.20
2022-10-17T01:35:54.136Z,10.20
2022-10-17T01:36:24.636Z,10.20
2022-10-17T01:36:51.306Z,10.10
2022-10-17T01:37:16.474Z,10.20
2022-10-17T01:37:41.811Z,10.20
2022-10-17T01:38:07.043Z,10.20
2022-10-17T01:38:32.404Z,10.20
2022-10-17T01:38:59.574Z,10.20
2022-10-17T01:39:29.978Z,10.20
2022-10-17T01:39:55.528Z,10.20
2022-10-17T01:40:21.455Z,10.20
2022-10-17T01:40:45.629Z,10.20
2022-10-17T01:41:11.074Z,10.20
2022-10-17T01:41:42.094Z,10.20
2022-10-17T01:42:13.492Z,10.20
2022-10-17T01:42:38.087Z,10.20
2022-10-17T01:43:03.765Z,10.20
2022-10-17T01:43:29.268Z,10.20
2022-10-17T01:43:54.725Z,10.20
2022-10-17T01:44:20.798Z,10.20
2022-10-17T01:44:47.439Z,10.20
2022-10-17T01:45:13.030Z,10.30
2022-10-17T01:45:38.873Z,10.30
2022-10-17T01:46:03.275Z,10.30
2022-10-17T01:46:28.489Z,10.30
2022-10-17T01:46:51.410Z,10.30
2022-10-17T01:47:15.825Z,10.30
2022-10-17T01:47:38.552Z,10.30
2022-10-17T01:48:04.543Z,10.30
2022-10-17T01:48:31.003Z,10.30
2022-10-17T01:48:53.841Z,10.30
2022-10-17T01:49:16.633Z,10.30
2022-10-17T01:49:39.684Z,10.30
2022-10-17T01:50:04.778Z,10.30
2022-10-17T01:50:31.398Z,10.30
2022-10-17T01:50:55.943Z,10.30
2022-10-17T01:51:21.201Z,10.30
2022-10-17T01:51:45.218Z,10.40
2022-10-17T01:52:10.012Z,10.30
2022-10-17T01:52:34.983Z,10.30
2022-10-17T01:52:59.825Z,10.30
2022-10-17T01:53:24.552Z,10.30
2022-10-17T01:53:50.734Z,10.30
2022-10-17T01:54:15.036Z,10.30
2022-10-17T01:54:40.365Z,10.30
2022-10-17T01:55:06.001Z,10.30
2022-10-17T01:55:31.174Z,10.30
2022-10-17T01:55:54.443Z,10.30
2022-10-17T01:56:17.102Z,10.30
2022-10-17T01:56:40.819Z,10.20
2022-10-17T01:57:06.214Z,10.20
2022-10-17T01:57:31.178Z,10.20
2022-10-17T01:57:55.264Z,10.20
2022-10-17T01:58:22.400Z,10.20
2022-10-17T01:58:47.761Z,10.20
2022-10-17T01:59:13.001Z,10.20
2022-10-17T01:59:37.235Z,10.20
2022-10-17T01:59:59.955Z,10.20
2022-10-17T02:00:24.972Z,10.20
2022-10-17T02:00:47.737Z,10.20
2022-10-17T02:01:11.401Z,10.20
2022-10-17T02:01:35.754Z,10.10
2022-10-17T02:01:58.568Z,10.20
2022-10-17T02:02:21.175Z,10.20
2022-10-17T02:02:44.420Z,10.20
2022-10-17T02:03:08.486Z,10.20
2022-10-17T02:03:31.685Z,10.10
2022-10-17T02:03:54.471Z,10.10
2022-10-17T02:04:17.201Z,10.10
2022-10-17T02:04:39.936Z,10.10
2022-10-17T02:05:02.701Z,10.10
2022-10-17T02:05:27.343Z,10.10
2022-10-17T02:05:50.091Z,10.10
2022-10-17T02:06:12.841Z,10.20
2022-10-17T02:06:36.395Z,10.10
2022-10-17T02:07:06.416Z,10.10
2022-10-17T02:07:29.389Z,10.10
2022-10-17T02:07:52.471Z,10.10
2022-10-17T02:08:15.760Z,10.10
2022-10-17T02:08:42.626Z,10.10
2022-10-17T02:09:19.871Z,10.10
2022-10-17T02:09:43.195Z,10.10
2022-10-17T02:10:11.300Z,10.10
2022-10-17T02:10:39.333Z,10.10
2022-10-17T02:11:03.545Z,10.10
2022-10-17T02:11:26.994Z,10.10
2022-10-17T02:12:04.576Z,10.10
2022-10-17T02:12:38.095Z,10.10
2022-10-17T02:13:02.380Z,10.10
2022-10-17T02:13:30.985Z,10.10
2022-10-17T02:14:13.848Z,10.10
2022-10-17T02:14:41.910Z,10.10
2022-10-17T02:15:21.937Z,10.10
2022-10-17T02:15:58.033Z,10.10
2022-10-17T02:16:24.385Z,10.00
2022-10-17T02:16:51.915Z,10.00
2022-10-17T02:17:17.425Z,10.00
2022-10-17T02:17:45.054Z,10.00
2022-10-17T02:18:19.425Z,10.00
2022-10-17T02:18:53.216Z,10.00
2022-10-17T02:19:36.827Z,10.00
2022-10-17T02:20:02.967Z,9.90
2022-10-17T02:20:26.978Z,9.90
2022-10-17T02:20:52.195Z,9.90
2022-10-17T02:21:19.040Z,9.90
2022-10-17T02:21:46.615Z,9.90
2022-10-17T02:22:18.280Z,9.90
2022-10-17T02:22:44.185Z,9.90
2022-10-17T02:23:10.289Z,9.90
2022-10-17T02:23:36.642Z,9.90
2022-10-17T02:24:03.181Z,9.90
2022-10-17T02:24:28.968Z,9.90
2022-10-17T02:24:55.083Z,9.90
2022-10-17T02:25:23.200Z,9.90
2022-10-17T02:25:49.005Z,10.00
2022-10-17T02:26:13.775Z,10.00
2022-10-17T02:26:38.800Z,10.00
2022-10-17T02:27:05.011Z,9.90
2022-10-17T02:27:34.065Z,10.00
2022-10-17T02:27:59.663Z,10.00
2022-10-17T02:28:23.751Z,10.00
2022-10-17T02:28:51.554Z,10.00
2022-10-17T02:29:15.562Z,10.00
2022-10-17T02:29:40.636Z,10.00
2022-10-17T02:30:09.025Z,10.00
2022-10-17T02:30:34.276Z,9.90
2022-10-17T02:31:00.179Z,9.90
2022-10-17T02:31:24.792Z,9.90
2022-10-17T02:31:50.112Z,9.90
2022-10-17T02:32:14.165Z,10.00
2022-10-17T02:32:39.145Z,10.00
2022-10-17T02:33:02.736Z,10.00
2022-10-17T02:33:28.040Z,10.00
2022-10-17T02:33:52.950Z,10.00
2022-10-17T02:34:18.225Z,10.00
2022-10-17T02:34:42.866Z,10.00
2022-10-17T02:35:06.163Z,10.00
2022-10-17T02:35:30.656Z,10.10
2022-10-17T02:35:55.295Z,10.10
2022-10-17T02:36:20.526Z,10.10
2022-10-17T02:36:46.716Z,10.10
2022-10-17T02:37:10.382Z,10.10
2022-10-17T02:37:35.718Z,10.10
2022-10-17T02:37:58.495Z,10.00
2022-10-17T02:38:21.361Z,10.00
2022-10-17T02:38:44.242Z,10.00
2022-10-17T02:39:07.090Z,10.00
2022-10-17T02:39:29.760Z,10.00
2022-10-17T02:39:52.643Z,10.00
2022-10-17T02:40:15.836Z,10.00
2022-10-17T02:40:39.686Z,10.00
2022-10-17T02:41:02.355Z,10.00
2022-10-17T02:41:25.098Z,10.00
2022-10-17T02:41:47.841Z,10.00
2022-10-17T02:42:12.155Z,10.00
2022-10-17T02:42:34.786Z,10.00
2022-10-17T02:42:57.665Z,10.00
2022-10-17T02:43:20.810Z,10.00
2022-10-17T02:43:45.515Z,10.00
2022-10-17T02:44:08.116Z,10.00
2022-10-17T02:44:31.184Z,10.00
2022-10-17T02:44:53.884Z,10.00
2022-10-17T02:45:16.774Z,10.00
2022-10-17T02:45:39.433Z,10.00
2022-10-17T02:46:02.102Z,10.00
2022-10-17T02:46:24.834Z,10.00
2022-10-17T02:46:56.153Z,10.00
2022-10-17T02:47:20.948Z,10.00
2022-10-17T02:47:48.768Z,10.00
2022-10-17T02:48:14.710Z,10.00
2022-10-17T02:48:38.864Z,10.00
2022-10-17T02:49:03.061Z,10.00
2022-10-17T02:49:28.042Z,10.00
2022-10-17T02:49:52.317Z,10.00
2022-10-17T02:50:15.153Z,10.00
2022-10-17T02:50:43.549Z,10.00
2022-10-17T02:51:10.264Z,10.00
2022-10-17T02:51:36.001Z,10.00
2022-10-17T02:52:01.581Z,10.00
2022-10-17T02:52:28.761Z,10.00
2022-10-17T02:52:52.962Z,10.00
2022-10-17T02:53:17.521Z,10.00
2022-10-17T02:53:44.001Z,10.00
2022-10-17T02:54:09.997Z,10.00
2022-10-17T02:54:37.424Z,10.00
2022-10-17T02:55:03.929Z,10.00
2022-10-17T02:55:29.660Z,9.90
2022-10-17T02:55:54.564Z,9.90
2022-10-17T02:56:18.884Z,9.90
2022-10-17T02:56:43.939Z,9.90
2022-10-17T02:57:08.490Z,9.90
2022-10-17T02:57:34.045Z,9.90
2022-10-17T02:57:58.203Z,9.90
2022-10-17T02:58:22.187Z,9.90
2022-10-17T02:58:45.759Z,9.90
2022-10-17T02:59:08.580Z,9.90
2022-10-17T02:59:31.376Z,9.90
2022-10-17T02:59:54.077Z,9.90
2022-10-17T03:00:17.662Z,9.90
2022-10-17T03:00:40.369Z,9.90
2022-10-17T03:01:03.156Z,9.90
2022-10-17T03:01:25.936Z,9.80
2022-10-17T03:01:49.036Z,9.80
2022-10-17T03:02:13.276Z,9.80
2022-10-17T03:02:42.566Z,9.80
2022-10-17T03:03:11.206Z,9.80
2022-10-17T03:03:34.003Z,9.80
2022-10-17T03:04:06.042Z,9.80
2022-10-17T03:04:28.700Z,9.80
2022-10-17T03:04:51.502Z,9.80
2022-10-17T03:05:18.285Z,9.80
2022-10-17T03:05:41.165Z,9.80
2022-10-17T03:06:03.948Z,9.80
2022-10-17T03:06:26.697Z,9.80
2022-10-17T03:06:50.146Z,9.80
2022-10-17T03:07:12.910Z,9.80
2022-10-17T03:07:38.190Z,9.80
2022-10-17T03:08:00.929Z,9.80
2022-10-17T03:08:24.810Z,9.90
2022-10-17T03:08:47.519Z,9.80
2022-10-17T03:09:10.219Z,9.80
2022-10-17T03:09:33.009Z,9.80
2022-10-17T03:09:55.816Z,9.80
2022-10-17T03:10:18.683Z,9.80
2022-10-17T03:10:41.409Z,9.80
2022-10-17T03:11:04.150Z,9.80
2022-10-17T03:11:29.739Z,9.80
2022-10-17T03:11:52.488Z,9.80
2022-10-17T03:12:15.254Z,9.80
2022-10-17T03:12:37.929Z,9.80
2022-10-17T03:13:00.645Z,9.80
2022-10-17T03:13:23.375Z,9.80
2022-10-17T03:13:46.091Z,9.80
2022-10-17T03:14:08.963Z,9.80
2022-10-17T03:14:31.594Z,9.80
2022-10-17T03:14:54.263Z,9.80
2022-10-17T03:15:17.054Z,9.80
2022-10-17T03:15:39.709Z,9.80
2022-10-17T03:16:02.384Z,9.80
2022-10-17T03:16:25.144Z,9.80
2022-10-17T03:16:47.853Z,9.80
2022-10-17T03:17:12.017Z,9.80
2022-10-17T03:17:35.045Z,9.80
2022-10-17T03:17:57.846Z,9.80
2022-10-17T03:18:20.571Z,9.80
2022-10-17T03:18:45.397Z,9.80
2022-10-17T03:19:10.704Z,9.80
2022-10-17T03:19:33.589Z,9.80
2022-10-17T03:19:56.234Z,9.80
2022-10-17T03:20:18.959Z,9.80
2022-10-17T03:20:41.679Z,9.80
2022-10-17T03:21:04.670Z,9.90
2022-10-17T03:21:27.410Z,9.90
2022-10-17T03:21:50.155Z,9.90
2022-10-17T03:22:12.946Z,9.90
2022-10-17T03:22:35.952Z,9.90
2022-10-17T03:23:01.544Z,9.90
2022-10-17T03:23:24.295Z,9.90
2022-10-17T03:23:47.040Z,9.90
2022-10-17T03:24:09.784Z,10.00
2022-10-17T03:24:32.475Z,10.00
2022-10-17T03:24:55.219Z,10.00
2022-10-17T03:25:17.914Z,10.00
2022-10-17T03:25:40.984Z,10.00
2022-10-17T03:26:04.319Z,10.00
2022-10-17T03:26:27.185Z,10.00
2022-10-17T03:26:49.912Z,10.00
2022-10-17T03:27:12.716Z,10.00
2022-10-17T03:27:35.456Z,10.00
2022-10-17T03:27:59.517Z,10.00
2022-10-17T03:28:22.307Z,10.00
2022-10-17T03:28:45.078Z,10.00
2022-10-17T03:29:07.848Z,10.00
2022-10-17T03:29:30.548Z,10.00
2022-10-17T03:29:53.286Z,10.00
2022-10-17T03:30:16.120Z,10.00
2022-10-17T03:30:39.085Z,9.90
2022-10-17T03:31:06.455Z,9.90
2022-10-17T03:31:29.216Z,9.90
2022-10-17T03:31:51.898Z,9.90
2022-10-17T03:32:16.050Z,9.90
2022-10-17T03:32:38.981Z,10.00
2022-10-17T03:33:01.687Z,10.00
2022-10-17T03:33:24.475Z,10.00
2022-10-17T03:33:47.200Z,10.00
2022-10-17T03:34:09.881Z,10.00
2022-10-17T03:34:32.645Z,10.00
2022-10-17T03:34:57.985Z,10.00
2022-10-17T03:35:20.721Z,10.00
2022-10-17T03:35:43.541Z,10.00
2022-10-17T03:36:07.610Z,10.00
2022-10-17T03:36:30.266Z,10.10
2022-10-17T03:36:55.476Z,10.00
2022-10-17T03:37:18.190Z,10.00
2022-10-17T03:37:40.902Z,10.00
2022-10-17T03:38:03.596Z,10.00
2022-10-17T03:38:26.391Z,10.00
2022-10-17T03:38:49.430Z,10.00
2022-10-17T03:39:12.156Z,10.00
2022-10-17T03:39:35.045Z,10.00
2022-10-17T03:39:57.925Z,9.90
2022-10-17T03:40:20.651Z,9.90
2022-10-17T03:40:43.370Z,9.90
2022-10-17T03:41:09.000Z,9.90
2022-10-17T03:41:31.676Z,9.90
2022-10-17T03:41:54.280Z,9.80
2022-10-17T03:42:16.976Z,9.90
2022-10-17T03:42:39.680Z,9.80
2022-10-17T03:43:02.437Z,9.80
2022-10-17T03:43:25.140Z,9.80
2022-10-17T03:43:47.880Z,9.80
2022-10-17T03:44:10.615Z,9.80
2022-10-17T03:44:33.547Z,9.80
2022-10-17T03:44:56.190Z,9.80
2022-10-17T03:45:18.887Z,9.80
2022-10-17T03:45:41.523Z,9.80
2022-10-17T03:46:04.323Z,9.80
2022-10-17T03:46:27.030Z,9.70
2022-10-17T03:46:49.705Z,9.70
2022-10-17T03:47:14.168Z,9.70
2022-10-17T03:47:38.716Z,9.70
2022-10-17T03:48:01.437Z,9.70
2022-10-17T03:48:24.255Z,9.70
2022-10-17T03:48:46.905Z,9.70
2022-10-17T03:49:09.591Z,9.70
2022-10-17T03:49:32.318Z,9.70
2022-10-17T03:49:55.050Z,9.70
2022-10-17T03:50:17.875Z,9.60
2022-10-17T03:50:41.595Z,9.70
2022-10-17T03:51:05.608Z,9.60
2022-10-17T03:51:28.285Z,9.60
2022-10-17T03:51:50.950Z,9.70
2022-10-17T03:52:14.875Z,9.70
2022-10-17T03:52:37.600Z,9.70
2022-10-17T03:53:00.345Z,9.70
2022-10-17T03:53:23.041Z,9.70
2022-10-17T03:53:45.839Z,9.80
2022-10-17T03:54:08.670Z,9.80
2022-10-17T03:54:31.379Z,9.80
2022-10-17T03:54:54.180Z,9.80
2022-10-17T03:55:16.963Z,9.80
2022-10-17T03:55:39.609Z,9.80
2022-10-17T03:56:10.730Z,9.80
2022-10-17T03:56:33.757Z,9.80
2022-10-17T03:57:20.191Z,9.80
2022-10-17T03:57:45.371Z,9.80
2022-10-17T03:58:08.553Z,9.80
2022-10-17T03:58:31.233Z,9.80
2022-10-17T03:58:54.790Z,9.70
2022-10-17T03:59:18.490Z,9.70
2022-10-17T03:59:41.269Z,9.70
2022-10-17T04:00:05.460Z,9.70
2022-10-17T04:00:28.244Z,9.70
2022-10-17T04:00:51.097Z,9.70
2022-10-17T04:01:14.647Z,9.70
2022-10-17T04:01:37.480Z,9.70
2022-10-17T04:02:00.166Z,9.70
2022-10-17T04:02:25.723Z,9.60
2022-10-17T04:02:50.000Z,9.70
2022-10-17T04:03:17.116Z,9.60
2022-10-17T04:03:40.478Z,9.70
2022-10-17T04:04:03.363Z,9.70
2022-10-17T04:04:26.275Z,9.60
2022-10-17T04:04:49.060Z,9.60
2022-10-17T04:05:11.819Z,9.60
2022-10-17T04:05:34.568Z,9.60
2022-10-17T04:06:00.178Z,9.60
2022-10-17T04:06:22.964Z,9.70
2022-10-17T04:06:45.644Z,9.60
2022-10-17T04:07:08.380Z,9.70
2022-10-17T04:07:31.130Z,9.60
2022-10-17T04:07:53.840Z,9.70
2022-10-17T04:08:16.731Z,9.70
2022-10-17T04:08:43.054Z,9.70
2022-10-17T04:09:06.249Z,9.60
2022-10-17T04:09:28.993Z,9.70
2022-10-17T04:09:51.897Z,9.70
2022-10-17T04:10:14.684Z,9.60
2022-10-17T04:10:37.357Z,9.60
2022-10-17T04:11:01.283Z,9.60
2022-10-17T04:11:24.017Z,9.60
2022-10-17T04:11:46.776Z,9.60
2022-10-17T04:12:09.511Z,9.60
2022-10-17T04:12:32.461Z,9.60
2022-10-17T04:12:55.348Z,9.50
2022-10-17T04:13:18.077Z,9.50
2022-10-17T04:13:41.296Z,9.50
2022-10-17T04:14:04.027Z,9.50
2022-10-17T04:14:26.886Z,9.50
2022-10-17T04:14:49.606Z,9.50
2022-10-17T04:15:12.633Z,9.50
2022-10-17T04:15:35.336Z,9.50
2022-10-17T04:15:58.567Z,9.50
2022-10-17T04:16:21.283Z,9.50
2022-10-17T04:16:44.067Z,9.50
2022-10-17T04:17:06.836Z,9.60
2022-10-17T04:17:34.575Z,9.50
2022-10-17T04:18:02.154Z,9.50
2022-10-17T04:18:25.048Z,9.50
2022-10-17T04:18:52.209Z,9.50
2022-10-17T04:19:14.914Z,9.50
2022-10-17T04:19:37.682Z,9.50
2022-10-17T04:20:00.482Z,9.50
2022-10-17T04:20:23.884Z,9.40
2022-10-17T04:20:46.747Z,9.50
2022-10-17T04:21:09.666Z,9.50
2022-10-17T04:21:32.391Z,9.40
2022-10-17T04:21:55.246Z,9.40
2022-10-17T04:22:18.080Z,9.40
2022-10-17T04:22:40.831Z,9.40
2022-10-17T04:23:03.575Z,9.40
2022-10-17T04:23:27.216Z,9.40
2022-10-17T04:23:52.800Z,9.40
2022-10-17T04:24:15.555Z,9.40
2022-10-17T04:24:38.255Z,9.40
2022-10-17T04:25:01.005Z,9.40
2022-10-17T04:25:23.735Z,9.30
2022-10-17T04:25:46.451Z,9.30
2022-10-17T04:26:09.442Z,9.30
2022-10-17T04:26:32.205Z,9.30
2022-10-17T04:26:55.154Z,9.30
2022-10-17T04:27:17.885Z,9.30
2022-10-17T04:27:40.627Z,9.20
2022-10-17T04:28:03.412Z,9.30
2022-10-17T04:28:26.534Z,9.30
2022-10-17T04:28:49.669Z,9.30
2022-10-17T04:29:12.360Z,9.30
2022-10-17T04:29:35.142Z,9.30
2022-10-17T04:29:58.029Z,9.30
2022-10-17T04:30:20.674Z,9.20
2022-10-17T04:30:45.477Z,9.20
2022-10-17T04:31:10.398Z,9.20
2022-10-17T04:31:33.219Z,9.20
2022-10-17T04:31:56.330Z,9.20
2022-10-17T04:32:19.182Z,9.20
2022-10-17T04:32:41.994Z,9.20
2022-10-17T04:33:06.203Z,9.20
2022-10-17T04:33:28.969Z,9.20
2022-10-17T04:33:52.799Z,9.30
2022-10-17T04:34:15.600Z,9.30
2022-10-17T04:34:38.263Z,9.20
2022-10-17T04:35:00.958Z,9.30
2022-10-17T04:35:23.678Z,9.30
2022-10-17T04:35:54.884Z,9.30
2022-10-17T04:36:18.603Z,9.30
2022-10-17T04:36:41.443Z,9.20
2022-10-17T04:37:04.178Z,9.30
2022-10-17T04:37:26.890Z,9.30
2022-10-17T04:37:49.828Z,9.30
2022-10-17T04:38:12.629Z,9.30
2022-10-17T04:38:35.296Z,9.20
2022-10-17T04:38:58.216Z,9.30
2022-10-17T04:39:20.930Z,9.20
2022-10-17T04:39:43.561Z,9.20
2022-10-17T04:40:08.304Z,9.20
2022-10-17T04:40:31.074Z,9.20
2022-10-17T04:40:53.787Z,9.20
2022-10-17T04:41:17.514Z,9.20
2022-10-17T04:41:40.325Z,9.20
2022-10-17T04:42:03.051Z,9.30
2022-10-17T04:42:25.919Z,9.30
2022-10-17T04:42:49.050Z,9.20
2022-10-17T04:43:11.860Z,9.20
2022-10-17T04:43:36.084Z,9.30
2022-10-17T04:44:01.611Z,9.30
2022-10-17T04:44:24.313Z,9.20
2022-10-17T04:44:47.041Z,9.20
2022-10-17T04:45:10.353Z,9.30
2022-10-17T04:45:33.193Z,9.30
2022-10-17T04:45:57.268Z,9.30
2022-10-17T04:46:20.025Z,9.20
2022-10-17T04:46:42.748Z,9.30
2022-10-17T04:47:05.444Z,9.20
2022-10-17T04:47:28.202Z,9.20
2022-10-17T04:47:51.071Z,9.20
2022-10-17T04:48:15.317Z,9.20
2022-10-17T04:48:38.070Z,9.20
2022-10-17T04:49:00.806Z,9.20
2022-10-17T04:49:23.655Z,9.20
2022-10-17T04:49:46.453Z,9.20
2022-10-17T04:50:09.757Z,9.20
2022-10-17T04:50:32.472Z,9.20
2022-10-17T04:50:55.377Z,9.10
2022-10-17T04:51:20.687Z,9.20
2022-10-17T04:51:46.037Z,9.10
2022-10-17T04:52:08.815Z,9.20
2022-10-17T04:52:32.505Z,9.20
2022-10-17T04:52:55.602Z,9.20
2022-10-17T04:53:18.351Z,9.20
2022-10-17T04:53:41.227Z,9.20
2022-10-17T04:54:04.082Z,9.20
2022-10-17T04:54:26.836Z,9.20
2022-10-17T04:54:49.576Z,9.20
2022-10-17T04:55:12.226Z,9.20
2022-10-17T04:55:39.055Z,9.20
2022-10-17T04:56:01.803Z,9.20
2022-10-17T04:56:24.873Z,9.20
2022-10-17T04:56:48.853Z,9.20
2022-10-17T04:57:11.663Z,9.20
2022-10-17T04:57:35.841Z,9.20
2022-10-17T04:57:58.875Z,9.20
2022-10-17T04:58:21.570Z,9.20
2022-10-17T04:58:44.409Z,9.20
2022-10-17T04:59:07.038Z,9.20
2022-10-17T04:59:30.089Z,9.20
2022-10-17T04:59:52.880Z,9.20
2022-10-17T05:00:15.872Z,9.20
2022-10-17T05:00:38.603Z,9.20
2022-10-17T05:01:05.507Z,9.20
2022-10-17T05:01:28.550Z,9.20
2022-10-17T05:01:51.335Z,9.10
2022-10-17T05:02:14.175Z,9.20
2022-10-17T05:02:36.965Z,9.20
2022-10-17T05:02:59.669Z,9.20
2022-10-17T05:03:23.935Z,9.20
2022-10-17T05:03:46.720Z,9.20
2022-10-17T05:04:09.500Z,9.20
2022-10-17T05:04:32.193Z,9.20
2022-10-17T05:04:54.954Z,9.20
2022-10-17T05:05:17.755Z,9.10
2022-10-17T05:05:40.656Z,9.20
2022-10-17T05:06:07.460Z,9.20
2022-10-17T05:06:30.575Z,9.10
2022-10-17T05:06:54.295Z,9.20
2022-10-17T05:07:17.041Z,9.10
2022-10-17T05:07:40.856Z,9.10
2022-10-17T05:08:04.780Z,9.20
2022-10-17T05:08:27.687Z,9.10
2022-10-17T05:08:50.420Z,9.20
2022-10-17T05:09:13.121Z,9.10
2022-10-17T05:09:35.900Z,9.20
2022-10-17T05:09:59.266Z,9.20
2022-10-17T05:10:22.241Z,9.10
2022-10-17T05:10:46.353Z,9.10
2022-10-17T05:11:19.483Z,9.10
2022-10-17T05:11:43.547Z,9.20
2022-10-17T05:12:09.449Z,9.20
2022-10-17T05:12:33.145Z,9.20
2022-10-17T05:12:55.853Z,9.20
2022-10-17T05:13:18.552Z,9.20
2022-10-17T05:13:41.314Z,9.20
2022-10-17T05:14:04.079Z,9.20
2022-10-17T05:14:26.982Z,9.10
2022-10-17T05:14:52.536Z,9.10
2022-10-17T05:15:15.416Z,9.20
2022-10-17T05:15:38.161Z,9.20
2022-10-17T05:16:01.076Z,9.20
2022-10-17T05:16:24.477Z,9.20
2022-10-17T05:16:47.180Z,9.10
2022-10-17T05:17:09.946Z,9.20
2022-10-17T05:17:32.752Z,9.20
2022-10-17T05:17:56.318Z,9.20
2022-10-17T05:18:19.056Z,9.20
2022-10-17T05:18:43.131Z,9.20
2022-10-17T05:19:05.861Z,9.20
2022-10-17T05:19:28.510Z,9.20
2022-10-17T05:19:51.236Z,9.20
2022-10-17T05:20:13.960Z,9.20
2022-10-17T05:20:36.861Z,9.20